Capim Grosso, Brazil
Current Conditions -  °F | °C
As of 10:00 AM on Sunday 21 Dec 2014 (Local Time) from SBPL Reporting Station
Scattered Clouds Scattered Clouds  
Wind Chill: 84°   Ceiling: Unl
Heat Index: 91°   Visibility: 6mi
Dew Point: 73°   Wind: 8mph
Humidity: 70%   Direction: 130°SE
Pressure: 30.03"   Gusts: NA
Location:  11.37°S, 40.01°W
Report Text: SBPL 211300Z 13007KT 9999 SCT025 29/23 Q1017
Loading
Personal Weather Stations






























Interactive Weather Map New forecast layout! Learn more

10-Day Weather Forecast

Advertisements
Track Severe Weather on mobile